sensor_id;sensor_type;location;lat;lon;timestamp;temperature;humidity
6468;DHT22;3267;48.794;9.928;2024-01-30T05:09:56;7.30;99.90
6468;DHT22;3267;48.794;9.928;2024-01-30T05:12:21;7.80;99.90
6468;DHT22;3267;48.794;9.928;2024-01-30T05:17:13;7.20;99.90
6468;DHT22;3267;48.794;9.928;2024-01-30T05:22:05;7.30;99.90
6468;DHT22;3267;48.794;9.928;2024-01-30T05:29:24;7.30;99.90
6468;DHT22;3267;48.794;9.928;2024-01-30T05:41:34;7.00;99.90
6468;DHT22;3267;48.794;9.928;2024-01-30T05:44:00;7.10;99.90
6468;DHT22;3267;48.794;9.928;2024-01-30T06:15:40;7.20;99.90
6468;DHT22;3267;48.794;9.928;2024-01-30T06:18:06;9.60;99.90
6468;DHT22;3267;48.794;9.928;2024-01-30T06:25:23;7.10;99.90
6468;DHT22;3267;48.794;9.928;2024-01-30T06:39:59;7.10;99.90
6468;DHT22;3267;48.794;9.928;2024-01-30T06:42:25;7.00;99.90
6468;DHT22;3267;48.794;9.928;2024-01-30T06:44:51;7.00;99.90
6468;DHT22;3267;48.794;9.928;2024-01-30T06:47:16;7.20;99.90
6468;DHT22;3267;48.794;9.928;2024-01-30T06:49:42;7.00;99.90
6468;DHT22;3267;48.794;9.928;2024-01-30T06:52:09;6.70;99.90
6468;DHT22;3267;48.794;9.928;2024-01-30T06:54:34;7.00;99.90
6468;DHT22;3267;48.794;9.928;2024-01-30T06:57:00;7.00;99.90
6468;DHT22;3267;48.794;9.928;2024-01-30T06:59:26;7.10;99.90
6468;DHT22;3267;48.794;9.928;2024-01-30T07:01:51;7.10;99.90
6468;DHT22;3267;48.794;9.928;2024-01-30T07:04:17;7.50;99.90
6468;DHT22;3267;48.794;9.928;2024-01-30T07:06:44;7.10;99.90
6468;DHT22;3267;48.794;9.928;2024-01-30T07:09:09;7.50;99.90
6468;DHT22;3267;48.794;9.928;2024-01-30T07:11:35;7.10;99.90
6468;DHT22;3267;48.794;9.928;2024-01-30T07:14:00;7.10;99.90
6468;DHT22;3267;48.794;9.928;2024-01-30T07:16:29;7.20;99.90
6468;DHT22;3267;48.794;9.928;2024-01-30T07:23:56;7.10;99.90
6468;DHT22;3267;48.794;9.928;2024-01-30T07:28:48;7.00;99.90
6468;DHT22;3267;48.794;9.928;2024-01-30T07:31:15;7.10;99.90
6468;DHT22;3267;48.794;9.928;2024-01-30T07:33:41;7.20;99.90
6468;DHT22;3267;48.794;9.928;2024-01-30T07:36:06;7.30;99.90
6468;DHT22;3267;48.794;9.928;2024-01-30T07:38:32;7.40;99.90
6468;DHT22;3267;48.794;9.928;2024-01-30T07:40:58;7.30;99.90
6468;DHT22;3267;48.794;9.928;2024-01-30T07:43:24;7.40;99.90
6468;DHT22;3267;48.794;9.928;2024-01-30T07:45:49;7.50;99.90
6468;DHT22;3267;48.794;9.928;2024-01-30T07:48:15;7.40;99.90
6468;DHT22;3267;48.794;9.928;2024-01-30T07:50:40;7.60;99.90
6468;DHT22;3267;48.794;9.928;2024-01-30T07:53:06;7.50;99.90
6468;DHT22;3267;48.794;9.928;2024-01-30T07:55:35;7.40;99.90
6468;DHT22;3267;48.794;9.928;2024-01-30T07:58:02;7.50;99.90
6468;DHT22;3267;48.794;9.928;2024-01-30T08:00:29;7.60;99.90
6468;DHT22;3267;48.794;9.928;2024-01-30T08:02:55;7.80;99.90
6468;DHT22;3267;48.794;9.928;2024-01-30T08:05:21;7.80;99.90
6468;DHT22;3267;48.794;9.928;2024-01-30T08:07:50;7.70;99.90
6468;DHT22;3267;48.794;9.928;2024-01-30T08:10:16;10.20;99.90
6468;DHT22;3267;48.794;9.928;2024-01-30T08:15:10;8.10;99.90
6468;DHT22;3267;48.794;9.928;2024-01-30T08:20:01;8.00;99.90
6468;DHT22;3267;48.794;9.928;2024-01-30T08:22:30;8.20;99.90
6468;DHT22;3267;48.794;9.928;2024-01-30T08:24:55;8.20;99.90
6468;DHT22;3267;48.794;9.928;2024-01-30T08:27:21;8.20;99.90
6468;DHT22;3267;48.794;9.928;2024-01-30T08:29:47;8.90;99.90
6468;DHT22;3267;48.794;9.928;2024-01-30T08:32:12;8.40;99.90
6468;DHT22;3267;48.794;9.928;2024-01-30T08:34:38;8.30;99.90
6468;DHT22;3267;48.794;9.928;2024-01-30T08:37:03;8.50;99.90
6468;DHT22;3267;48.794;9.928;2024-01-30T08:39:29;8.50;99.90
6468;DHT22;3267;48.794;9.928;2024-01-30T08:41:55;8.80;99.90
6468;DHT22;3267;48.794;9.928;2024-01-30T08:44:21;10.70;99.90
6468;DHT22;3267;48.794;9.928;2024-01-30T08:46:47;8.70;99.90
6468;DHT22;3267;48.794;9.928;2024-01-30T08:49:13;8.80;99.90
6468;DHT22;3267;48.794;9.928;2024-01-30T08:51:39;8.90;99.90
6468;DHT22;3267;48.794;9.928;2024-01-30T08:54:05;8.90;99.90
6468;DHT22;3267;48.794;9.928;2024-01-30T08:56:31;9.10;99.90
6468;DHT22;3267;48.794;9.928;2024-01-30T08:58:56;9.00;99.90
6468;DHT22;3267;48.794;9.928;2024-01-30T09:01:22;9.10;99.90
6468;DHT22;3267;48.794;9.928;2024-01-30T09:03:48;9.30;99.90
6468;DHT22;3267;48.794;9.928;2024-01-30T09:06:14;9.20;99.90
6468;DHT22;3267;48.794;9.928;2024-01-30T09:08:39;9.30;99.90
6468;DHT22;3267;48.794;9.928;2024-01-30T09:11:12;9.40;99.90
6468;DHT22;3267;48.794;9.928;2024-01-30T09:13:38;9.30;99.90
6468;DHT22;3267;48.794;9.928;2024-01-30T09:16:04;9.30;99.90
6468;DHT22;3267;48.794;9.928;2024-01-30T09:18:30;9.50;99.90
6468;DHT22;3267;48.794;9.928;2024-01-30T09:20:56;9.60;99.90
6468;DHT22;3267;48.794;9.928;2024-01-30T09:23:22;9.40;99.90
6468;DHT22;3267;48.794;9.928;2024-01-30T09:25:47;9.50;99.90
6468;DHT22;3267;48.794;9.928;2024-01-30T09:28:14;9.50;99.90
6468;DHT22;3267;48.794;9.928;2024-01-30T09:30:40;9.60;99.90
6468;DHT22;3267;48.794;9.928;2024-01-30T09:33:06;9.80;99.90
6468;DHT22;3267;48.794;9.928;2024-01-30T09:35:32;9.70;99.90
6468;DHT22;3267;48.794;9.928;2024-01-30T09:37:58;9.80;99.90
6468;DHT22;3267;48.794;9.928;2024-01-30T09:40:27;9.90;99.90
6468;DHT22;3267;48.794;9.928;2024-01-30T09:42:54;10.00;99.90
6468;DHT22;3267;48.794;9.928;2024-01-30T09:45:24;10.20;99.90
6468;DHT22;3267;48.794;9.928;2024-01-30T09:47:50;10.10;99.90
6468;DHT22;3267;48.794;9.928;2024-01-30T09:50:16;10.30;99.90
6468;DHT22;3267;48.794;9.928;2024-01-30T09:52:46;10.10;99.90
6468;DHT22;3267;48.794;9.928;2024-01-30T09:55:11;10.50;99.90
6468;DHT22;3267;48.794;9.928;2024-01-30T09:57:37;10.40;99.90
6468;DHT22;3267;48.794;9.928;2024-01-30T10:00:04;10.50;99.90
6468;DHT22;3267;48.794;9.928;2024-01-30T10:02:33;10.60;99.90
6468;DHT22;3267;48.794;9.928;2024-01-30T10:05:00;10.90;99.90
6468;DHT22;3267;48.794;9.928;2024-01-30T10:07:26;10.70;99.90
6468;DHT22;3267;48.794;9.928;2024-01-30T10:09:53;10.70;99.90
6468;DHT22;3267;48.794;9.928;2024-01-30T10:12:18;11.00;99.90
6468;DHT22;3267;48.794;9.928;2024-01-30T10:14:44;11.00;99.90
6468;DHT22;3267;48.794;9.928;2024-01-30T10:17:11;11.00;99.90
6468;DHT22;3267;48.794;9.928;2024-01-30T10:19:41;11.00;99.90
6468;DHT22;3267;48.794;9.928;2024-01-30T10:22:07;11.20;99.90
6468;DHT22;3267;48.794;9.928;2024-01-30T10:24:34;11.20;99.90
6468;DHT22;3267;48.794;9.928;2024-01-30T10:27:00;11.30;99.90
6468;DHT22;3267;48.794;9.928;2024-01-30T10:29:29;11.40;99.90
6468;DHT22;3267;48.794;9.928;2024-01-30T10:32:01;11.60;99.90
6468;DHT22;3267;48.794;9.928;2024-01-30T10:34:27;11.50;99.90
6468;DHT22;3267;48.794;9.928;2024-01-30T10:37:00;11.50;99.90
6468;DHT22;3267;48.794;9.928;2024-01-30T10:39:29;11.70;99.90
6468;DHT22;3267;48.794;9.928;2024-01-30T10:41:59;11.80;99.90
6468;DHT22;3267;48.794;9.928;2024-01-30T10:44:56;11.70;99.90
6468;DHT22;3267;48.794;9.928;2024-01-30T10:47:24;11.90;99.90
6468;DHT22;3267;48.794;9.928;2024-01-30T10:49:53;12.00;99.90
6468;DHT22;3267;48.794;9.928;2024-01-30T10:52:20;12.10;99.90
6468;DHT22;3267;48.794;9.928;2024-01-30T10:54:46;12.10;99.90
6468;DHT22;3267;48.794;9.928;2024-01-30T10:57:12;12.20;99.90
6468;DHT22;3267;48.794;9.928;2024-01-30T10:59:39;12.20;99.90
6468;DHT22;3267;48.794;9.928;2024-01-30T11:02:06;12.30;99.90
6468;DHT22;3267;48.794;9.928;2024-01-30T11:04:39;12.30;99.90
6468;DHT22;3267;48.794;9.928;2024-01-30T11:07:19;12.50;99.90
6468;DHT22;3267;48.794;9.928;2024-01-30T11:10:02;12.50;99.90
6468;DHT22;3267;48.794;9.928;2024-01-30T11:12:32;12.60;99.90
6468;DHT22;3267;48.794;9.928;2024-01-30T11:15:09;12.70;99.90
6468;DHT22;3267;48.794;9.928;2024-01-30T11:20:27;12.80;99.90
6468;DHT22;3267;48.794;9.928;2024-01-30T11:22:56;12.90;99.90
6468;DHT22;3267;48.794;9.928;2024-01-30T11:25:23;14.60;99.90
6468;DHT22;3267;48.794;9.928;2024-01-30T11:27:55;13.00;99.90
6468;DHT22;3267;48.794;9.928;2024-01-30T11:30:32;13.00;99.90
6468;DHT22;3267;48.794;9.928;2024-01-30T11:33:05;13.00;99.90
6468;DHT22;3267;48.794;9.928;2024-01-30T11:35:33;13.10;99.90
6468;DHT22;3267;48.794;9.928;2024-01-30T11:38:00;13.20;99.90
6468;DHT22;3267;48.794;9.928;2024-01-30T11:40:28;13.20;99.90
6468;DHT22;3267;48.794;9.928;2024-01-30T11:42:58;13.20;99.90
6468;DHT22;3267;48.794;9.928;2024-01-30T11:45:23;13.30;99.90
6468;DHT22;3267;48.794;9.928;2024-01-30T11:47:49;13.30;99.90
6468;DHT22;3267;48.794;9.928;2024-01-30T11:50:15;14.10;99.90
6468;DHT22;3267;48.794;9.928;2024-01-30T11:52:41;13.40;99.90
6468;DHT22;3267;48.794;9.928;2024-01-30T11:55:09;13.50;99.90
6468;DHT22;3267;48.794;9.928;2024-01-30T11:57:34;13.50;99.90
6468;DHT22;3267;48.794;9.928;2024-01-30T12:00:05;13.50;99.90
6468;DHT22;3267;48.794;9.928;2024-01-30T12:02:52;13.50;99.90
6468;DHT22;3267;48.794;9.928;2024-01-30T12:05:24;13.80;99.90
6468;DHT22;3267;48.794;9.928;2024-01-30T12:07:52;13.60;99.90
6468;DHT22;3267;48.794;9.928;2024-01-30T12:10:18;13.60;99.90
6468;DHT22;3267;48.794;9.928;2024-01-30T12:12:46;13.60;99.90
6468;DHT22;3267;48.794;9.928;2024-01-30T12:15:13;13.70;99.90
6468;DHT22;3267;48.794;9.928;2024-01-30T12:17:39;14.10;99.90
6468;DHT22;3267;48.794;9.928;2024-01-30T12:20:06;13.70;99.90
6468;DHT22;3267;48.794;9.928;2024-01-30T12:22:46;13.70;99.90
6468;DHT22;3267;48.794;9.928;2024-01-30T12:25:14;13.70;99.90
6468;DHT22;3267;48.794;9.928;2024-01-30T12:27:46;13.80;99.90
6468;DHT22;3267;48.794;9.928;2024-01-30T12:30:15;13.80;99.90
6468;DHT22;3267;48.794;9.928;2024-01-30T12:32:45;14.20;99.90
6468;DHT22;3267;48.794;9.928;2024-01-30T12:35:19;13.90;99.90
6468;DHT22;3267;48.794;9.928;2024-01-30T12:37:49;14.00;99.90
6468;DHT22;3267;48.794;9.928;2024-01-30T12:40:16;14.00;99.90
6468;DHT22;3267;48.794;9.928;2024-01-30T12:42:46;14.60;99.90
6468;DHT22;3267;48.794;9.928;2024-01-30T12:45:14;14.10;99.90
6468;DHT22;3267;48.794;9.928;2024-01-30T12:47:47;14.10;99.90
6468;DHT22;3267;48.794;9.928;2024-01-30T12:50:12;14.20;99.90
6468;DHT22;3267;48.794;9.928;2024-01-30T12:52:44;14.20;99.90
6468;DHT22;3267;48.794;9.928;2024-01-30T12:55:09;14.30;99.90
6468;DHT22;3267;48.794;9.928;2024-01-30T12:57:35;14.30;99.90
6468;DHT22;3267;48.794;9.928;2024-01-30T13:00:01;14.30;99.90
6468;DHT22;3267;48.794;9.928;2024-01-30T13:02:27;14.40;99.90
6468;DHT22;3267;48.794;9.928;2024-01-30T13:05:00;15.00;99.90
6468;DHT22;3267;48.794;9.928;2024-01-30T13:07:25;14.70;99.90
6468;DHT22;3267;48.794;9.928;2024-01-30T13:09:51;14.90;99.90
6468;DHT22;3267;48.794;9.928;2024-01-30T13:12:17;14.60;99.90
6468;DHT22;3267;48.794;9.928;2024-01-30T13:14:42;14.70;99.90
6468;DHT22;3267;48.794;9.928;2024-01-30T13:17:08;16.30;99.90
6468;DHT22;3267;48.794;9.928;2024-01-30T13:19:34;14.80;99.90
6468;DHT22;3267;48.794;9.928;2024-01-30T13:22:00;14.80;99.90
6468;DHT22;3267;48.794;9.928;2024-01-30T13:24:25;14.80;99.90
6468;DHT22;3267;48.794;9.928;2024-01-30T13:26:52;14.90;99.90
6468;DHT22;3267;48.794;9.928;2024-01-30T13:29:18;14.90;99.90
6468;DHT22;3267;48.794;9.928;2024-01-30T13:31:44;15.90;99.90
6468;DHT22;3267;48.794;9.928;2024-01-30T13:34:12;17.00;99.90
6468;DHT22;3267;48.794;9.928;2024-01-30T13:36:38;15.10;99.90
6468;DHT22;3267;48.794;9.928;2024-01-30T13:39:04;17.20;99.90
6468;DHT22;3267;48.794;9.928;2024-01-30T13:41:33;15.10;99.90
6468;DHT22;3267;48.794;9.928;2024-01-30T13:43:58;15.10;99.90
6468;DHT22;3267;48.794;9.928;2024-01-30T13:46:24;15.10;99.90
6468;DHT22;3267;48.794;9.928;2024-01-30T13:48:51;17.20;99.90
6468;DHT22;3267;48.794;9.928;2024-01-30T13:51:16;15.20;99.90
6468;DHT22;3267;48.794;9.928;2024-01-30T13:53:44;15.20;99.90
6468;DHT22;3267;48.794;9.928;2024-01-30T13:56:10;15.20;99.90
6468;DHT22;3267;48.794;9.928;2024-01-30T13:58:36;17.70;99.90
6468;DHT22;3267;48.794;9.928;2024-01-30T14:01:02;15.30;99.90
6468;DHT22;3267;48.794;9.928;2024-01-30T14:03:28;15.30;99.90
6468;DHT22;3267;48.794;9.928;2024-01-30T14:05:54;15.30;99.90
6468;DHT22;3267;48.794;9.928;2024-01-30T14:08:20;15.50;99.90
6468;DHT22;3267;48.794;9.928;2024-01-30T14:10:49;15.80;99.90
6468;DHT22;3267;48.794;9.928;2024-01-30T14:13:14;15.50;99.90
6468;DHT22;3267;48.794;9.928;2024-01-30T14:15:40;15.30;99.90
6468;DHT22;3267;48.794;9.928;2024-01-30T14:18:06;15.20;99.90
6468;DHT22;3267;48.794;9.928;2024-01-30T14:20:34;15.30;99.90
6468;DHT22;3267;48.794;9.928;2024-01-30T14:22:59;15.30;99.90
6468;DHT22;3267;48.794;9.928;2024-01-30T14:25:26;16.20;99.90
6468;DHT22;3267;48.794;9.928;2024-01-30T14:27:52;15.20;99.90
6468;DHT22;3267;48.794;9.928;2024-01-30T14:30:18;15.20;99.90
6468;DHT22;3267;48.794;9.928;2024-01-30T14:32:44;15.20;99.90
6468;DHT22;3267;48.794;9.928;2024-01-30T14:35:10;15.20;99.90
6468;DHT22;3267;48.794;9.928;2024-01-30T14:37:37;15.20;99.90
6468;DHT22;3267;48.794;9.928;2024-01-30T14:40:03;15.20;99.90
6468;DHT22;3267;48.794;9.928;2024-01-30T14:42:30;15.20;99.90
6468;DHT22;3267;48.794;9.928;2024-01-30T14:44:57;16.20;99.90
6468;DHT22;3267;48.794;9.928;2024-01-30T14:47:25;15.20;99.90
6468;DHT22;3267;48.794;9.928;2024-01-30T14:49:51;15.50;99.90
6468;DHT22;3267;48.794;9.928;2024-01-30T14:52:17;15.10;99.90
6468;DHT22;3267;48.794;9.928;2024-01-30T14:54:43;15.20;99.90
6468;DHT22;3267;48.794;9.928;2024-01-30T14:57:10;15.10;99.90
6468;DHT22;3267;48.794;9.928;2024-01-30T14:59:36;15.10;99.90
6468;DHT22;3267;48.794;9.928;2024-01-30T15:02:02;15.10;99.90
6468;DHT22;3267;48.794;9.928;2024-01-30T15:04:28;15.10;99.90
6468;DHT22;3267;48.794;9.928;2024-01-30T15:06:54;15.10;99.90
6468;DHT22;3267;48.794;9.928;2024-01-30T15:09:19;15.10;99.90
6468;DHT22;3267;48.794;9.928;2024-01-30T15:11:47;15.00;99.90
6468;DHT22;3267;48.794;9.928;2024-01-30T15:14:14;15.00;99.90
6468;DHT22;3267;48.794;9.928;2024-01-30T15:16:40;15.20;99.90
6468;DHT22;3267;48.794;9.928;2024-01-30T15:19:06;16.60;99.90
6468;DHT22;3267;48.794;9.928;2024-01-30T15:21:32;15.00;99.90
6468;DHT22;3267;48.794;9.928;2024-01-30T15:23:58;15.00;99.90
6468;DHT22;3267;48.794;9.928;2024-01-30T15:26:23;17.30;99.90
6468;DHT22;3267;48.794;9.928;2024-01-30T15:28:50;14.90;99.90
6468;DHT22;3267;48.794;9.928;2024-01-30T15:31:16;14.80;99.90
6468;DHT22;3267;48.794;9.928;2024-01-30T15:33:42;14.80;99.90
6468;DHT22;3267;48.794;9.928;2024-01-30T15:36:08;15.20;99.90
6468;DHT22;3267;48.794;9.928;2024-01-30T15:38:34;14.60;99.90
6468;DHT22;3267;48.794;9.928;2024-01-30T15:41:00;14.50;99.90
6468;DHT22;3267;48.794;9.928;2024-01-30T15:43:27;14.50;99.90
6468;DHT22;3267;48.794;9.928;2024-01-30T15:45:53;14.40;99.90
6468;DHT22;3267;48.794;9.928;2024-01-30T15:48:19;14.60;99.90
6468;DHT22;3267;48.794;9.928;2024-01-30T15:50:45;14.50;99.90
6468;DHT22;3267;48.794;9.928;2024-01-30T15:53:11;14.70;99.90
6468;DHT22;3267;48.794;9.928;2024-01-30T15:55:37;14.50;99.90
6468;DHT22;3267;48.794;9.928;2024-01-30T15:58:03;15.50;99.90
6468;DHT22;3267;48.794;9.928;2024-01-30T16:00:29;14.30;99.90
6468;DHT22;3267;48.794;9.928;2024-01-30T16:02:55;14.30;99.90
6468;DHT22;3267;48.794;9.928;2024-01-30T16:05:22;14.00;99.90
6468;DHT22;3267;48.794;9.928;2024-01-30T16:07:48;14.00;99.90
6468;DHT22;3267;48.794;9.928;2024-01-30T16:10:14;14.00;99.90
6468;DHT22;3267;48.794;9.928;2024-01-30T16:12:45;13.90;99.90
6468;DHT22;3267;48.794;9.928;2024-01-30T16:15:15;13.80;99.90
6468;DHT22;3267;48.794;9.928;2024-01-30T16:17:41;13.80;99.90
6468;DHT22;3267;48.794;9.928;2024-01-30T16:20:08;13.70;99.90
6468;DHT22;3267;48.794;9.928;2024-01-30T16:22:34;13.70;99.90
6468;DHT22;3267;48.794;9.928;2024-01-30T16:25:01;13.70;99.90
6468;DHT22;3267;48.794;9.928;2024-01-30T16:27:27;13.60;99.90
6468;DHT22;3267;48.794;9.928;2024-01-30T16:29:52;13.70;99.90
6468;DHT22;3267;48.794;9.928;2024-01-30T16:32:19;13.60;99.90
6468;DHT22;3267;48.794;9.928;2024-01-30T16:34:44;13.60;99.90
6468;DHT22;3267;48.794;9.928;2024-01-30T16:37:10;13.50;99.90
6468;DHT22;3267;48.794;9.928;2024-01-30T16:39:36;13.50;99.90
6468;DHT22;3267;48.794;9.928;2024-01-30T16:42:02;13.40;99.90
6468;DHT22;3267;48.794;9.928;2024-01-30T16:44:28;13.40;99.90
6468;DHT22;3267;48.794;9.928;2024-01-30T16:46:54;13.40;99.90
6468;DHT22;3267;48.794;9.928;2024-01-30T16:49:19;13.40;99.90
6468;DHT22;3267;48.794;9.928;2024-01-30T16:51:45;13.30;99.90
6468;DHT22;3267;48.794;9.928;2024-01-30T16:54:11;13.70;99.90
6468;DHT22;3267;48.794;9.928;2024-01-30T16:56:37;13.30;99.90
6468;DHT22;3267;48.794;9.928;2024-01-30T16:59:02;13.40;99.90
6468;DHT22;3267;48.794;9.928;2024-01-30T17:01:28;13.30;99.90
6468;DHT22;3267;48.794;9.928;2024-01-30T17:03:54;13.30;99.90
6468;DHT22;3267;48.794;9.928;2024-01-30T17:06:19;13.20;99.90
6468;DHT22;3267;48.794;9.928;2024-01-30T17:08:45;13.30;99.90
6468;DHT22;3267;48.794;9.928;2024-01-30T17:11:10;13.30;99.90
6468;DHT22;3267;48.794;9.928;2024-01-30T17:13:36;13.30;99.90
6468;DHT22;3267;48.794;9.928;2024-01-30T17:16:02;13.30;99.90
6468;DHT22;3267;48.794;9.928;2024-01-30T17:18:30;13.10;99.90
6468;DHT22;3267;48.794;9.928;2024-01-30T17:20:56;13.20;99.90
6468;DHT22;3267;48.794;9.928;2024-01-30T17:23:21;13.20;99.90
6468;DHT22;3267;48.794;9.928;2024-01-30T17:25:50;13.20;99.90
6468;DHT22;3267;48.794;9.928;2024-01-30T17:28:16;13.20;99.90
6468;DHT22;3267;48.794;9.928;2024-01-30T17:30:42;13.20;99.90
6468;DHT22;3267;48.794;9.928;2024-01-30T17:33:07;13.10;99.90
6468;DHT22;3267;48.794;9.928;2024-01-30T17:35:33;13.20;99.90
6468;DHT22;3267;48.794;9.928;2024-01-30T17:37:59;13.10;99.90
6468;DHT22;3267;48.794;9.928;2024-01-30T17:40:24;13.10;99.90
6468;DHT22;3267;48.794;9.928;2024-01-30T17:42:50;13.10;99.90
6468;DHT22;3267;48.794;9.928;2024-01-30T17:45:16;13.10;99.90
6468;DHT22;3267;48.794;9.928;2024-01-30T17:47:41;15.70;99.90
6468;DHT22;3267;48.794;9.928;2024-01-30T17:50:07;13.10;99.90
6468;DHT22;3267;48.794;9.928;2024-01-30T17:52:33;13.10;99.90
6468;DHT22;3267;48.794;9.928;2024-01-30T17:54:59;15.00;99.90
6468;DHT22;3267;48.794;9.928;2024-01-30T17:57:24;13.00;99.90
6468;DHT22;3267;48.794;9.928;2024-01-30T17:59:50;13.00;99.90
6468;DHT22;3267;48.794;9.928;2024-01-30T18:02:16;12.90;99.90
6468;DHT22;3267;48.794;9.928;2024-01-30T18:04:42;12.80;99.90
6468;DHT22;3267;48.794;9.928;2024-01-30T18:07:09;12.80;99.90
6468;DHT22;3267;48.794;9.928;2024-01-30T18:09:34;12.80;99.90
6468;DHT22;3267;48.794;9.928;2024-01-30T18:12:00;12.90;99.90
6468;DHT22;3267;48.794;9.928;2024-01-30T18:14:26;12.90;99.90
6468;DHT22;3267;48.794;9.928;2024-01-30T18:16:51;14.40;99.90
6468;DHT22;3267;48.794;9.928;2024-01-30T18:19:17;14.80;99.90
6468;DHT22;3267;48.794;9.928;2024-01-30T18:21:45;12.80;99.90
6468;DHT22;3267;48.794;9.928;2024-01-30T18:24:10;12.80;99.90
6468;DHT22;3267;48.794;9.928;2024-01-30T18:26:36;12.80;99.90
6468;DHT22;3267;48.794;9.928;2024-01-30T18:29:03;12.80;99.90
6468;DHT22;3267;48.794;9.928;2024-01-30T18:31:29;12.90;99.90
6468;DHT22;3267;48.794;9.928;2024-01-30T18:33:54;12.70;99.90
6468;DHT22;3267;48.794;9.928;2024-01-30T18:36:21;12.60;99.90
6468;DHT22;3267;48.794;9.928;2024-01-30T18:38:49;12.60;99.90
6468;DHT22;3267;48.794;9.928;2024-01-30T18:41:16;12.70;99.90
6468;DHT22;3267;48.794;9.928;2024-01-30T18:43:42;12.50;99.90
6468;DHT22;3267;48.794;9.928;2024-01-30T18:46:08;12.40;99.90
6468;DHT22;3267;48.794;9.928;2024-01-30T18:48:36;12.40;99.90
6468;DHT22;3267;48.794;9.928;2024-01-30T18:51:02;12.40;99.90
6468;DHT22;3267;48.794;9.928;2024-01-30T18:53:28;12.40;99.90
6468;DHT22;3267;48.794;9.928;2024-01-30T18:55:55;14.20;99.90
6468;DHT22;3267;48.794;9.928;2024-01-30T18:58:20;12.30;99.90
6468;DHT22;3267;48.794;9.928;2024-01-30T19:00:48;12.50;99.90
6468;DHT22;3267;48.794;9.928;2024-01-30T19:03:17;12.80;99.90
6468;DHT22;3267;48.794;9.928;2024-01-30T19:05:44;12.20;99.90
6468;DHT22;3267;48.794;9.928;2024-01-30T19:08:10;12.20;99.90
6468;DHT22;3267;48.794;9.928;2024-01-30T19:10:36;12.20;99.90
6468;DHT22;3267;48.794;9.928;2024-01-30T19:13:02;12.10;99.90
6468;DHT22;3267;48.794;9.928;2024-01-30T19:15:31;12.20;99.90
6468;DHT22;3267;48.794;9.928;2024-01-30T19:17:57;13.80;99.90
6468;DHT22;3267;48.794;9.928;2024-01-30T19:20:22;12.10;99.90
6468;DHT22;3267;48.794;9.928;2024-01-30T19:22:49;12.10;99.90
6468;DHT22;3267;48.794;9.928;2024-01-30T19:25:14;14.70;99.90
6468;DHT22;3267;48.794;9.928;2024-01-30T19:27:41;12.10;99.90
6468;DHT22;3267;48.794;9.928;2024-01-30T19:30:07;12.10;99.90
6468;DHT22;3267;48.794;9.928;2024-01-30T19:32:37;12.10;99.90
6468;DHT22;3267;48.794;9.928;2024-01-30T19:35:03;12.10;99.90
6468;DHT22;3267;48.794;9.928;2024-01-30T19:37:29;12.10;99.90
6468;DHT22;3267;48.794;9.928;2024-01-30T19:39:58;12.10;99.90
6468;DHT22;3267;48.794;9.928;2024-01-30T19:42:23;12.20;99.90
6468;DHT22;3267;48.794;9.928;2024-01-30T19:44:49;12.90;99.90
6468;DHT22;3267;48.794;9.928;2024-01-30T19:47:15;12.30;99.90
6468;DHT22;3267;48.794;9.928;2024-01-30T19:49:42;12.30;99.90
6468;DHT22;3267;48.794;9.928;2024-01-30T19:52:08;12.30;99.90
6468;DHT22;3267;48.794;9.928;2024-01-30T19:54:34;12.30;99.90
6468;DHT22;3267;48.794;9.928;2024-01-30T19:57:01;14.60;99.90
6468;DHT22;3267;48.794;9.928;2024-01-30T19:59:27;14.10;99.90
6468;DHT22;3267;48.794;9.928;2024-01-30T20:01:53;12.40;99.90
6468;DHT22;3267;48.794;9.928;2024-01-30T20:04:19;12.40;99.90
6468;DHT22;3267;48.794;9.928;2024-01-30T20:06:44;12.80;99.90
6468;DHT22;3267;48.794;9.928;2024-01-30T20:09:10;12.40;99.90
6468;DHT22;3267;48.794;9.928;2024-01-30T20:11:36;12.50;99.90
6468;DHT22;3267;48.794;9.928;2024-01-30T20:14:02;12.50;99.90
6468;DHT22;3267;48.794;9.928;2024-01-30T20:19:03;13.60;99.90
6468;DHT22;3267;48.794;9.928;2024-01-30T20:21:29;15.20;99.90
6468;DHT22;3267;48.794;9.928;2024-01-30T20:23:55;13.40;99.90
6468;DHT22;3267;48.794;9.928;2024-01-30T20:26:20;12.60;99.90
6468;DHT22;3267;48.794;9.928;2024-01-30T20:28:46;12.50;99.90
6468;DHT22;3267;48.794;9.928;2024-01-30T20:31:13;12.60;99.90
6468;DHT22;3267;48.794;9.928;2024-01-30T20:33:38;12.60;99.90
6468;DHT22;3267;48.794;9.928;2024-01-30T20:36:08;12.60;99.90
6468;DHT22;3267;48.794;9.928;2024-01-30T20:38:33;12.50;99.90
6468;DHT22;3267;48.794;9.928;2024-01-30T20:40:59;13.20;99.90
6468;DHT22;3267;48.794;9.928;2024-01-30T20:43:25;12.70;99.90
6468;DHT22;3267;48.794;9.928;2024-01-30T20:45:51;13.10;99.90
6468;DHT22;3267;48.794;9.928;2024-01-30T20:48:16;12.90;99.90
6468;DHT22;3267;48.794;9.928;2024-01-30T20:50:43;13.20;99.90
6468;DHT22;3267;48.794;9.928;2024-01-30T20:53:08;12.70;99.90
6468;DHT22;3267;48.794;9.928;2024-01-30T20:55:36;12.70;99.90
6468;DHT22;3267;48.794;9.928;2024-01-30T20:58:02;12.70;99.90
6468;DHT22;3267;48.794;9.928;2024-01-30T21:00:28;12.60;99.90
6468;DHT22;3267;48.794;9.928;2024-01-30T21:02:54;14.60;99.90
6468;DHT22;3267;48.794;9.928;2024-01-30T21:05:19;13.80;99.90
6468;DHT22;3267;48.794;9.928;2024-01-30T21:07:49;12.40;99.90
6468;DHT22;3267;48.794;9.928;2024-01-30T21:10:15;12.40;99.90
6468;DHT22;3267;48.794;9.928;2024-01-30T21:12:40;12.30;99.90
6468;DHT22;3267;48.794;9.928;2024-01-30T21:15:08;12.30;99.90
6468;DHT22;3267;48.794;9.928;2024-01-30T21:17:34;12.20;99.90
6468;DHT22;3267;48.794;9.928;2024-01-30T21:19:59;13.10;99.90
6468;DHT22;3267;48.794;9.928;2024-01-30T21:22:25;12.20;99.90
6468;DHT22;3267;48.794;9.928;2024-01-30T21:24:51;12.10;99.90
6468;DHT22;3267;48.794;9.928;2024-01-30T21:27:16;12.10;99.90
6468;DHT22;3267;48.794;9.928;2024-01-30T21:29:42;14.20;99.90
6468;DHT22;3267;48.794;9.928;2024-01-30T21:32:09;12.10;99.90
6468;DHT22;3267;48.794;9.928;2024-01-30T21:34:35;12.00;99.90
6468;DHT22;3267;48.794;9.928;2024-01-30T21:37:00;11.90;99.90
6468;DHT22;3267;48.794;9.928;2024-01-30T21:39:26;12.30;99.90
6468;DHT22;3267;48.794;9.928;2024-01-30T21:41:52;11.90;99.90
6468;DHT22;3267;48.794;9.928;2024-01-30T21:44:18;11.90;99.90
6468;DHT22;3267;48.794;9.928;2024-01-30T21:46:43;11.80;99.90
6468;DHT22;3267;48.794;9.928;2024-01-30T21:49:09;11.90;99.90
6468;DHT22;3267;48.794;9.928;2024-01-30T21:51:35;13.70;99.90
6468;DHT22;3267;48.794;9.928;2024-01-30T21:54:01;11.80;99.90
6468;DHT22;3267;48.794;9.928;2024-01-30T21:56:27;13.50;99.90
6468;DHT22;3267;48.794;9.928;2024-01-30T21:58:52;11.70;99.90
6468;DHT22;3267;48.794;9.928;2024-01-30T22:01:18;11.60;99.90
6468;DHT22;3267;48.794;9.928;2024-01-30T22:03:44;11.60;99.90
6468;DHT22;3267;48.794;9.928;2024-01-30T22:06:11;11.50;99.90
6468;DHT22;3267;48.794;9.928;2024-01-30T22:08:39;11.40;99.90
6468;DHT22;3267;48.794;9.928;2024-01-30T22:11:04;11.80;99.90
6468;DHT22;3267;48.794;9.928;2024-01-30T22:13:32;11.30;99.90
6468;DHT22;3267;48.794;9.928;2024-01-30T22:15:57;11.40;99.90
6468;DHT22;3267;48.794;9.928;2024-01-30T22:18:23;11.20;99.90
6468;DHT22;3267;48.794;9.928;2024-01-30T22:20:49;11.10;99.90
6468;DHT22;3267;48.794;9.928;2024-01-30T22:23:15;11.10;99.90
6468;DHT22;3267;48.794;9.928;2024-01-30T22:25:41;11.00;99.90
6468;DHT22;3267;48.794;9.928;2024-01-30T22:28:06;11.00;99.90
